Fort Towson, Oklahoma
Current Conditions -  °F | °C
As of 8:15 AM on Thursday 27 Nov 2014 (Local Time) from KHHW Reporting Station
Clear Clear  
Wind Chill: 30°   Ceiling: Unl
Heat Index: 37°   Visibility: 10mi
Dew Point: 26°   Wind: 8mph
Humidity: 65%   Direction: 360°N
Pressure: 30.53"   Gusts: NA
Location:  34.02°N, 95.27°W
Report Text: KHHW 271415Z AUTO 36007KT 10SM CLR 03/M03 A3053 RMK AO2 T00251035
Loading
Personal Weather Stations






























Interactive Weather Map New forecast layout! Learn more

10-Day Weather Forecast

Advertisements
Track Severe Weather on mobile